createdAt,value
2022-12-26T00:01:07.899Z,97782.75
2022-12-26T00:04:49.788Z,97774.75
2022-12-26T00:07:32.581Z,97785.50
2022-12-26T00:10:35.501Z,97773.19
2022-12-26T00:13:41.130Z,97768.13
2022-12-26T00:16:45.485Z,97763.00
2022-12-26T00:19:47.404Z,97763.00
2022-12-26T00:22:49.037Z,97755.88
2022-12-26T00:25:52.030Z,97764.03
2022-12-26T00:28:53.961Z,97764.09
2022-12-26T00:31:56.209Z,97755.41
2022-12-26T00:35:00.221Z,97756.19
2022-12-26T00:38:01.837Z,97744.78
2022-12-26T00:41:05.116Z,97752.94
2022-12-26T00:44:06.636Z,97758.41
2022-12-26T00:47:08.139Z,97775.19
2022-12-26T00:50:12.518Z,97781.38
2022-12-26T00:53:16.754Z,97791.16
2022-12-26T00:56:19.627Z,97796.63
2022-12-26T00:59:23.059Z,97789.59
2022-12-26T01:02:40.542Z,97793.09
2022-12-26T01:05:42.785Z,97790.34
2022-12-26T01:08:44.589Z,97792.69
2022-12-26T01:11:47.417Z,97778.63
2022-12-26T01:14:48.973Z,97792.69
2022-12-26T01:17:50.424Z,97793.56
2022-12-26T01:20:52.083Z,97790.88
2022-12-26T01:23:53.683Z,97786.34
2022-12-26T01:26:56.616Z,97789.09
2022-12-26T01:29:58.286Z,97791.75
2022-12-26T01:33:00.116Z,97797.06
2022-12-26T01:36:01.688Z,97790.03
2022-12-26T01:39:03.292Z,97813.81
2022-12-26T01:42:09.350Z,97803.25
2022-12-26T01:45:21.101Z,97803.16
2022-12-26T01:48:25.992Z,97811.16
2022-12-26T01:51:30.113Z,97810.28
2022-12-26T01:54:41.174Z,97810.47
2022-12-26T01:57:42.880Z,97819.31
2022-12-26T02:00:44.536Z,97820.44
2022-12-26T02:04:05.344Z,97815.03
2022-12-26T02:07:07.369Z,97820.34
2022-12-26T02:10:11.169Z,97821.38
2022-12-26T02:13:14.174Z,97829.19
2022-12-26T02:16:17.755Z,97832.03
2022-12-26T02:19:25.296Z,97831.31
2022-12-26T02:22:40.902Z,97822.47
2022-12-26T02:26:15.586Z,97814.41
2022-12-26T02:29:44.931Z,97822.38
2022-12-26T02:33:02.842Z,97819.72
2022-12-26T02:36:26.714Z,97815.25
2022-12-26T02:39:45.419Z,97807.28
2022-12-26T02:42:55.280Z,97811.72
2022-12-26T02:46:21.862Z,97812.78
2022-12-26T02:49:31.517Z,97807.34
2022-12-26T02:52:59.704Z,97821.53
2022-12-26T02:56:25.111Z,97833.03
2022-12-26T02:59:56.044Z,97834.06
2022-12-26T03:03:19.260Z,97834.84
2022-12-26T03:06:41.950Z,97815.34
2022-12-26T03:10:03.513Z,97802.22
2022-12-26T03:13:10.903Z,97805.91
2022-12-26T03:16:32.210Z,97818.25
2022-12-26T03:19:36.133Z,97804.09
2022-12-26T03:22:42.453Z,97820.16
2022-12-26T03:26:05.181Z,97813.13
2022-12-26T03:29:26.286Z,97818.44
2022-12-26T03:32:27.941Z,97797.19
2022-12-26T03:35:31.177Z,97804.31
2022-12-26T03:38:38.249Z,97819.34
2022-12-26T03:42:02.530Z,97822.09
2022-12-26T03:45:28.349Z,97821.16
2022-12-26T03:48:52.328Z,97826.47
2022-12-26T03:52:17.623Z,97830.16
2022-12-26T03:55:55.052Z,97837.47
2022-12-26T03:59:18.667Z,97834.91
2022-12-26T04:02:40.473Z,97835.88
2022-12-26T04:06:03.503Z,97838.63
2022-12-26T04:09:27.315Z,97833.31
2022-12-26T04:12:50.835Z,97833.41
2022-12-26T04:16:13.086Z,97831.59
2022-12-26T04:19:25.325Z,97825.50
2022-12-26T04:22:49.042Z,97829.88
2022-12-26T04:26:12.006Z,97821.13
2022-12-26T04:29:34.074Z,97829.88
2022-12-26T04:32:56.883Z,97819.31
2022-12-26T04:36:19.805Z,97829.97
2022-12-26T04:39:42.046Z,97840.53
2022-12-26T04:43:46.840Z,97845.84
2022-12-26T04:46:27.334Z,97840.53
2022-12-26T04:49:47.748Z,97822.84
2022-12-26T04:52:58.790Z,97828.16
2022-12-26T04:56:00.524Z,97820.19
2022-12-26T04:59:02.023Z,97822.75
2022-12-26T05:02:23.418Z,97833.56
2022-12-26T05:05:44.552Z,97838.97
2022-12-26T05:09:05.314Z,97856.81
2022-12-26T05:12:08.192Z,97840.13
2022-12-26T05:15:09.958Z,97857.91
2022-12-26T05:18:31.310Z,97866.84
2022-12-26T05:21:51.589Z,97873.09
2022-12-26T05:25:11.826Z,97866.06
2022-12-26T05:28:33.131Z,97880.31
2022-12-26T05:31:36.659Z,97881.25
2022-12-26T05:34:39.987Z,97877.81
2022-12-26T05:37:41.603Z,97884.84
2022-12-26T05:40:43.147Z,97885.78
2022-12-26T05:43:44.722Z,97884.00
2022-12-26T05:46:46.971Z,97882.19
2022-12-26T05:49:49.967Z,97884.00
2022-12-26T05:52:51.470Z,97891.09
2022-12-26T05:55:53.029Z,97894.53
2022-12-26T05:58:54.981Z,97898.16
2022-12-26T06:01:56.594Z,97882.19
2022-12-26T06:04:59.566Z,97890.16
2022-12-26T06:08:03.342Z,97891.09
2022-12-26T06:11:05.583Z,97894.69
2022-12-26T06:14:07.139Z,97904.41
2022-12-26T06:17:08.683Z,97907.13
2022-12-26T06:20:11.910Z,97904.47
2022-12-26T06:23:13.732Z,97915.19
2022-12-26T06:26:15.976Z,97909.00
2022-12-26T06:29:17.607Z,97910.81
2022-12-26T06:32:19.582Z,97912.69
2022-12-26T06:35:22.591Z,97916.44
2022-12-26T06:38:24.124Z,97936.00
2022-12-26T06:41:25.876Z,97936.06
2022-12-26T06:44:27.369Z,97931.75
2022-12-26T06:47:28.910Z,97940.69
2022-12-26T06:50:32.041Z,97935.44
2022-12-26T06:53:34.251Z,97935.59
2022-12-26T06:56:36.096Z,97925.00
2022-12-26T06:59:37.652Z,97933.00
2022-12-26T07:02:39.378Z,97926.81
2022-12-26T07:05:42.384Z,97923.25
2022-12-26T07:08:43.971Z,97934.75
2022-12-26T07:11:49.682Z,97940.06
2022-12-26T07:14:51.557Z,97932.09
2022-12-26T07:17:53.557Z,97937.41
2022-12-26T07:20:57.034Z,97951.59
2022-12-26T07:23:58.673Z,97946.34
2022-12-26T07:27:00.181Z,97946.34
2022-12-26T07:30:01.678Z,97934.06
2022-12-26T07:33:03.365Z,97942.91
2022-12-26T07:36:07.143Z,97948.28
2022-12-26T07:39:08.725Z,97957.22
2022-12-26T07:42:10.227Z,97965.19
2022-12-26T07:45:12.026Z,97960.03
2022-12-26T07:48:13.700Z,97963.56
2022-12-26T07:51:16.523Z,97959.09
2022-12-26T07:54:18.145Z,97961.88
2022-12-26T07:57:47.349Z,97962.75
2022-12-26T08:00:41.114Z,97963.63
2022-12-26T08:03:42.911Z,97968.72
2022-12-26T08:06:46.948Z,97982.09
2022-12-26T08:09:48.551Z,97974.03
2022-12-26T08:12:50.091Z,97966.28
2022-12-26T08:15:51.728Z,97980.50
2022-12-26T08:18:55.122Z,97968.94
2022-12-26T08:21:58.016Z,97981.44
2022-12-26T08:24:59.544Z,97985.88
2022-12-26T08:28:01.091Z,97984.09
2022-12-26T08:31:05.379Z,97988.47
2022-12-26T08:34:07.021Z,97985.97
2022-12-26T08:37:10.245Z,97983.22
2022-12-26T08:40:12.908Z,98003.63
2022-12-26T08:43:34.905Z,97994.03
2022-12-26T08:46:36.523Z,97996.75
2022-12-26T08:49:38.040Z,98001.28
2022-12-26T08:52:40.900Z,98007.38
2022-12-26T08:55:42.856Z,98008.25
2022-12-26T08:58:44.518Z,98012.78
2022-12-26T09:01:46.144Z,98030.47
2022-12-26T09:04:47.874Z,98024.28
2022-12-26T09:07:50.973Z,98019.91
2022-12-26T09:10:52.566Z,98004.72
2022-12-26T09:13:54.565Z,98005.59
2022-12-26T09:16:56.227Z,98020.53
2022-12-26T09:19:57.776Z,98014.34
2022-12-26T09:23:00.722Z,98014.34
2022-12-26T09:26:06.662Z,98013.34
2022-12-26T09:29:09.633Z,98020.38
2022-12-26T09:32:11.173Z,98019.38
2022-12-26T09:35:12.696Z,98024.63
2022-12-26T09:38:15.555Z,98029.00
2022-12-26T09:41:30.857Z,98025.56
2022-12-26T09:44:41.586Z,98032.44
2022-12-26T09:47:50.252Z,98021.69
2022-12-26T09:50:52.985Z,98023.28
2022-12-26T09:53:56.279Z,98021.41
2022-12-26T09:57:02.614Z,98015.94
2022-12-26T10:00:05.582Z,98018.47
2022-12-26T10:03:13.927Z,98019.09
2022-12-26T10:06:16.836Z,98010.00
2022-12-26T10:09:30.745Z,98015.22
2022-12-26T10:12:37.097Z,98013.31
2022-12-26T10:15:41.941Z,98020.38
2022-12-26T10:18:51.039Z,98010.34
2022-12-26T10:21:56.551Z,98007.41
2022-12-26T10:25:01.630Z,98012.56
2022-12-26T10:28:04.340Z,98005.34
2022-12-26T10:31:09.057Z,98016.00
2022-12-26T10:34:13.185Z,98017.59
2022-12-26T10:37:18.146Z,98019.31
2022-12-26T10:40:23.190Z,98023.59
2022-12-26T10:43:28.631Z,98009.34
2022-12-26T10:46:37.395Z,98005.66
2022-12-26T10:49:39.151Z,98013.66
2022-12-26T10:52:41.013Z,98003.41
2022-12-26T10:55:44.522Z,97999.81
2022-12-26T10:58:46.875Z,98001.00
2022-12-26T11:01:49.820Z,98005.44
2022-12-26T11:08:23.785Z,98012.78
2022-12-26T11:11:45.984Z,98004.88
2022-12-26T11:14:49.159Z,98000.59
2022-12-26T11:17:52.227Z,97998.88
2022-12-26T11:20:53.814Z,97993.72
2022-12-26T11:24:16.131Z,97995.44
2022-12-26T11:27:23.687Z,97995.34
2022-12-26T11:30:26.857Z,97993.47
2022-12-26T11:33:30.320Z,98001.38
2022-12-26T11:36:34.275Z,98005.84
2022-12-26T11:39:36.575Z,97987.97
2022-12-26T11:42:39.777Z,97992.34
2022-12-26T11:45:42.470Z,97966.69
2022-12-26T11:48:48.401Z,97984.47
2022-12-26T11:51:58.488Z,97976.38
2022-12-26T11:55:01.349Z,97971.16
2022-12-26T11:58:15.787Z,97984.47
2022-12-26T12:01:17.484Z,97963.16
2022-12-26T12:04:19.361Z,97975.53
2022-12-26T12:07:30.145Z,97978.28
2022-12-26T12:10:50.484Z,97959.66
2022-12-26T12:13:58.702Z,97962.22
2022-12-26T12:17:03.685Z,97958.63
2022-12-26T12:20:17.591Z,97956.75
2022-12-26T12:23:27.071Z,97952.91
2022-12-26T12:26:34.364Z,97954.09
2022-12-26T12:29:44.783Z,97971.94
2022-12-26T12:32:57.172Z,97979.13
2022-12-26T12:36:07.073Z,97956.28
2022-12-26T12:39:11.564Z,97963.72
2022-12-26T12:42:23.480Z,97965.09
2022-12-26T12:45:30.043Z,97961.19
2022-12-26T12:48:39.571Z,97962.28
2022-12-26T12:51:44.914Z,97960.66
2022-12-26T12:54:58.748Z,97959.63
2022-12-26T12:58:06.778Z,97949.06
2022-12-26T13:01:12.949Z,97963.22
2022-12-26T13:04:16.130Z,97963.47
2022-12-26T13:07:20.276Z,97957.28
2022-12-26T13:10:24.588Z,97968.47
2022-12-26T13:13:28.414Z,97972.75
2022-12-26T13:16:33.752Z,97961.13
2022-12-26T13:19:40.552Z,97967.31
2022-12-26T13:23:01.896Z,97952.13
2022-12-26T13:26:09.394Z,97955.81
2022-12-26T13:29:13.267Z,97969.97
2022-12-26T13:32:18.230Z,97959.94
2022-12-26T13:35:38.275Z,97967.00
2022-12-26T13:38:58.613Z,97963.25
2022-12-26T13:42:20.395Z,97966.69
2022-12-26T13:45:40.857Z,97971.84
2022-12-26T13:48:58.161Z,97977.34
2022-12-26T13:52:20.156Z,97985.41
2022-12-26T13:55:31.122Z,97978.41
2022-12-26T13:58:39.377Z,97989.06
2022-12-26T14:01:47.760Z,97978.38
2022-12-26T14:04:59.800Z,97985.53
2022-12-26T14:08:04.732Z,97994.53
2022-12-26T14:11:15.605Z,97990.84
2022-12-26T14:14:23.834Z,98011.09
2022-12-26T14:17:33.201Z,98020.03
2022-12-26T14:20:41.153Z,98038.56
2022-12-26T14:23:46.233Z,98045.50
2022-12-26T14:26:51.814Z,98046.06
2022-12-26T14:29:59.218Z,98047.56
2022-12-26T14:33:09.089Z,98052.47
2022-12-26T14:36:25.326Z,98068.81
2022-12-26T14:39:32.415Z,98075.19
2022-12-26T14:43:10.315Z,98084.41
2022-12-26T14:46:26.771Z,98097.13
2022-12-26T14:49:39.287Z,98097.72
2022-12-26T14:52:43.339Z,98108.91
2022-12-26T14:55:48.976Z,98122.91
2022-12-26T14:58:51.034Z,98135.94
2022-12-26T15:02:00.896Z,98145.44
2022-12-26T15:05:11.087Z,98147.84
2022-12-26T15:08:33.823Z,98143.66
2022-12-26T15:11:53.260Z,98172.53
2022-12-26T15:15:10.356Z,98155.19
2022-12-26T15:18:42.923Z,98161.75
2022-12-26T15:21:55.056Z,98175.97
2022-12-26T15:25:19.979Z,98176.94
2022-12-26T15:28:33.436Z,98173.50
2022-12-26T15:31:49.604Z,98185.09
2022-12-26T15:34:57.181Z,98189.56
2022-12-26T15:38:13.826Z,98195.91
2022-12-26T15:41:19.323Z,98204.78
2022-12-26T15:44:25.718Z,98205.06
2022-12-26T15:47:33.419Z,98211.22
2022-12-26T15:50:43.864Z,98215.72
2022-12-26T15:53:54.661Z,98220.97
2022-12-26T15:57:05.976Z,98219.38
2022-12-26T16:00:14.943Z,98232.59
2022-12-26T16:03:22.541Z,98239.69
2022-12-26T16:06:31.405Z,98232.78
2022-12-26T16:09:39.072Z,98238.16
2022-12-26T16:12:40.928Z,98241.69
2022-12-26T16:15:46.742Z,98253.22
2022-12-26T16:18:48.284Z,98254.06
2022-12-26T16:22:10.040Z,98254.22
2022-12-26T16:25:13.840Z,98252.50
2022-12-26T16:28:15.768Z,98250.88
2022-12-26T16:31:20.865Z,98249.19
2022-12-26T16:34:22.561Z,98244.84
2022-12-26T16:37:25.195Z,98262.47
2022-12-26T16:40:28.407Z,98261.50
2022-12-26T16:43:30.945Z,98287.09
2022-12-26T16:46:33.882Z,98298.53
2022-12-26T16:49:35.795Z,98295.94
2022-12-26T16:52:45.832Z,98297.69
2022-12-26T16:55:49.404Z,98293.28
2022-12-26T16:58:53.769Z,98285.31
2022-12-26T17:01:58.282Z,98296.06
2022-12-26T17:05:02.549Z,98298.75
2022-12-26T17:08:05.106Z,98302.31
2022-12-26T17:11:08.801Z,98311.16
2022-12-26T17:14:17.419Z,98304.25
2022-12-26T17:17:30.488Z,98306.91
2022-12-26T17:20:36.424Z,98319.44
2022-12-26T17:23:39.881Z,98331.91
2022-12-26T17:26:42.620Z,98335.41
2022-12-26T17:29:49.323Z,98325.81
2022-12-26T17:32:52.231Z,98331.97
2022-12-26T17:39:20.159Z,98332.00
2022-12-26T17:42:21.897Z,98336.53
2022-12-26T17:45:25.305Z,98339.47
2022-12-26T17:48:28.751Z,98338.63
2022-12-26T17:51:30.491Z,98339.56
2022-12-26T17:54:32.001Z,98347.53
2022-12-26T17:57:33.711Z,98343.06
2022-12-26T18:00:35.367Z,98357.16
2022-12-26T18:03:38.483Z,98353.59
2022-12-26T18:06:40.762Z,98357.16
2022-12-26T18:09:43.092Z,98355.59
2022-12-26T18:12:44.852Z,98367.81
2022-12-26T18:15:46.994Z,98366.13
2022-12-26T18:18:49.926Z,98375.72
2022-12-26T18:21:51.412Z,98384.56
2022-12-26T18:24:53.254Z,98384.50
2022-12-26T18:27:54.985Z,98401.38
2022-12-26T18:30:58.035Z,98403.25
2022-12-26T18:34:01.284Z,98404.31
2022-12-26T18:37:02.832Z,98407.91
2022-12-26T18:40:04.986Z,98414.13
2022-12-26T18:43:07.074Z,98424.75
2022-12-26T18:46:14.620Z,98416.31
2022-12-26T18:49:18.313Z,98425.56
2022-12-26T18:52:19.831Z,98421.28
2022-12-26T18:55:21.881Z,98425.19
2022-12-26T18:58:23.476Z,98421.94
2022-12-26T19:01:25.660Z,98430.09
2022-12-26T19:04:28.680Z,98424.09
2022-12-26T19:07:30.742Z,98423.38
2022-12-26T19:10:33.491Z,98431.47
2022-12-26T19:13:36.144Z,98442.09
2022-12-26T19:16:38.074Z,98439.53
2022-12-26T19:19:41.242Z,98444.84
2022-12-26T19:22:42.708Z,98448.44
2022-12-26T19:25:44.363Z,98449.22
2022-12-26T19:28:50.297Z,98457.09
2022-12-26T19:31:51.844Z,98464.97
2022-12-26T19:34:56.191Z,98473.75
2022-12-26T19:37:57.776Z,98473.75
2022-12-26T19:41:02.638Z,98482.69
2022-12-26T19:44:04.311Z,98489.75
2022-12-26T19:47:12.728Z,98495.78
2022-12-26T19:50:15.981Z,98497.69
2022-12-26T19:53:17.520Z,98518.09
2022-12-26T19:56:20.600Z,98523.41
2022-12-26T19:59:22.190Z,98522.59
2022-12-26T20:02:23.902Z,98532.28
2022-12-26T20:05:26.900Z,98527.03
2022-12-26T20:08:28.620Z,98533.22
2022-12-26T20:11:31.425Z,98538.44
2022-12-26T20:14:33.151Z,98543.81
2022-12-26T20:17:34.847Z,98547.34
2022-12-26T20:20:37.801Z,98550.88
2022-12-26T20:23:39.716Z,98552.63
2022-12-26T20:26:42.218Z,98544.81
2022-12-26T20:29:43.946Z,98549.25
2022-12-26T20:32:47.288Z,98556.25
2022-12-26T20:35:50.337Z,98571.25
2022-12-26T20:38:52.340Z,98576.63
2022-12-26T20:41:54.495Z,98587.28
2022-12-26T20:44:55.969Z,98592.69
2022-12-26T20:47:57.562Z,98592.75
2022-12-26T20:51:01.881Z,98598.13
2022-12-26T20:54:03.483Z,98605.19
2022-12-26T20:57:05.169Z,98595.53
2022-12-26T21:00:07.852Z,98609.59
2022-12-26T21:03:09.463Z,98621.91
2022-12-26T21:06:13.695Z,98631.69
2022-12-26T21:09:15.453Z,98622.03
2022-12-26T21:12:16.970Z,98624.78
2022-12-26T21:15:18.583Z,98630.94
2022-12-26T21:18:20.100Z,98639.78
2022-12-26T21:21:24.490Z,98653.88
2022-12-26T21:24:27.538Z,98647.72
2022-12-26T21:27:29.141Z,98652.16
2022-12-26T21:30:30.884Z,98654.00
2022-12-26T21:33:32.466Z,98652.31
2022-12-26T21:36:35.462Z,98656.81
2022-12-26T21:39:37.345Z,98655.97
2022-12-26T21:42:38.924Z,98658.59
2022-12-26T21:45:40.936Z,98660.41
2022-12-26T21:48:47.191Z,98666.63
2022-12-26T21:51:50.941Z,98665.78
2022-12-26T21:55:11.135Z,98675.47
2022-12-26T21:58:12.769Z,98669.41
2022-12-26T22:01:16.568Z,98674.69
2022-12-26T22:04:21.161Z,98673.78
2022-12-26T22:07:24.134Z,98686.97
2022-12-26T22:10:44.819Z,98685.22
2022-12-26T22:13:47.205Z,98691.34
2022-12-26T22:16:51.144Z,98686.06
2022-12-26T22:19:52.762Z,98693.88
2022-12-26T22:22:55.887Z,98700.00
2022-12-26T22:25:57.892Z,98702.63
2022-12-26T22:28:59.481Z,98720.13
2022-12-26T22:32:01.036Z,98725.38
2022-12-26T22:35:02.738Z,98730.66
2022-12-26T22:38:05.837Z,98729.00
2022-12-26T22:41:07.436Z,98725.63
2022-12-26T22:44:09.140Z,98724.78
2022-12-26T22:47:10.753Z,98725.66
2022-12-26T22:50:14.051Z,98737.06
2022-12-26T22:53:17.019Z,98731.78
2022-12-26T22:56:18.506Z,98719.50
2022-12-26T22:59:41.596Z,98742.25
2022-12-26T23:02:41.950Z,98740.50
2022-12-26T23:05:43.755Z,98751.06
2022-12-26T23:08:47.041Z,98741.41
2022-12-26T23:12:09.109Z,98744.09
2022-12-26T23:15:11.886Z,98745.84
2022-12-26T23:18:39.767Z,98745.84
2022-12-26T23:21:44.988Z,98740.63
2022-12-26T23:24:48.080Z,98737.13
2022-12-26T23:28:25.088Z,98733.66
2022-12-26T23:31:26.681Z,98744.25
2022-12-26T23:34:28.513Z,98735.53
2022-12-26T23:37:30.067Z,98735.53
2022-12-26T23:40:33.064Z,98752.16
2022-12-26T23:43:34.800Z,98747.84
2022-12-26T23:46:36.794Z,98746.13
2022-12-26T23:49:38.333Z,98756.59
2022-12-26T23:52:40.317Z,98755.72
2022-12-26T23:55:43.549Z,98753.13
2022-12-26T23:58:45.402Z,98768.00
